sensor_id;sensor_type;location;lat;lon;timestamp;P1;P2;P0
68198;PMS7003;55021;51.554;17.044;2022-12-20T09:25:43;54.60;41.40;25.00
68198;PMS7003;55021;51.554;17.044;2022-12-20T09:41:51;58.00;46.00;28.00
68198;PMS7003;55021;51.554;17.044;2022-12-20T09:56:57;65.75;50.75;29.75
68198;PMS7003;55021;51.554;17.044;2022-12-20T10:12:08;57.75;46.00;27.00
68198;PMS7003;55021;51.554;17.044;2022-12-20T10:27:22;57.25;44.00;27.00
68198;PMS7003;55021;51.554;17.044;2022-12-20T10:42:29;65.25;48.50;29.75
68198;PMS7003;55021;51.554;17.044;2022-12-20T10:57:39;66.75;51.50;32.75
68198;PMS7003;55021;51.554;17.044;2022-12-20T11:12:46;72.50;48.75;28.50
68198;PMS7003;55021;51.554;17.044;2022-12-20T11:27:56;59.75;47.50;29.00
68198;PMS7003;55021;51.554;17.044;2022-12-20T11:43:24;65.75;47.75;29.75
68198;PMS7003;55021;51.554;17.044;2022-12-20T11:58:40;59.50;44.50;27.00
68198;PMS7003;55021;51.554;17.044;2022-12-20T12:13:49;69.75;53.00;31.75
68198;PMS7003;55021;51.554;17.044;2022-12-20T12:28:53;64.00;51.00;30.75
68198;PMS7003;55021;51.554;17.044;2022-12-20T12:43:57;60.25;46.00;28.75
68198;PMS7003;55021;51.554;17.044;2022-12-20T12:59:21;67.50;49.50;29.75
68198;PMS7003;55021;51.554;17.044;2022-12-20T13:14:48;66.75;49.25;29.50
68198;PMS7003;55021;51.554;17.044;2022-12-20T13:29:52;60.50;46.50;28.75
68198;PMS7003;55021;51.554;17.044;2022-12-20T13:45:00;60.75;46.00;28.75
68198;PMS7003;55021;51.554;17.044;2022-12-20T14:00:05;71.75;51.75;31.75
68198;PMS7003;55021;51.554;17.044;2022-12-20T14:15:23;60.50;49.25;29.50
68198;PMS7003;55021;51.554;17.044;2022-12-20T14:30:32;66.50;48.75;29.75
68198;PMS7003;55021;51.554;17.044;2022-12-20T14:45:37;72.50;53.50;34.00
68198;PMS7003;55021;51.554;17.044;2022-12-20T15:00:53;79.50;59.75;37.25
68198;PMS7003;55021;51.554;17.044;2022-12-20T15:15:58;84.25;59.00;35.50
68198;PMS7003;55021;51.554;17.044;2022-12-20T15:31:01;71.75;54.00;35.25
68198;PMS7003;55021;51.554;17.044;2022-12-20T15:46:04;70.00;53.75;33.50
68198;PMS7003;55021;51.554;17.044;2022-12-20T16:01:10;74.00;54.75;32.00
68198;PMS7003;55021;51.554;17.044;2022-12-20T16:16:15;69.75;56.00;33.50
68198;PMS7003;55021;51.554;17.044;2022-12-20T16:31:21;75.75;59.75;35.75
68198;PMS7003;55021;51.554;17.044;2022-12-20T16:46:26;77.50;56.00;34.00
68198;PMS7003;55021;51.554;17.044;2022-12-20T17:01:30;85.25;62.75;39.25
68198;PMS7003;55021;51.554;17.044;2022-12-20T17:16:35;71.75;54.50;33.75
68198;PMS7003;55021;51.554;17.044;2022-12-20T17:31:37;83.75;63.75;38.75
68198;PMS7003;55021;51.554;17.044;2022-12-20T17:46:41;89.50;67.25;41.75
68198;PMS7003;55021;51.554;17.044;2022-12-20T18:01:45;82.75;63.00;39.25
68198;PMS7003;55021;51.554;17.044;2022-12-20T18:16:47;83.50;61.00;37.50
68198;PMS7003;55021;51.554;17.044;2022-12-20T18:31:50;75.25;57.50;36.25
68198;PMS7003;55021;51.554;17.044;2022-12-20T18:46:53;70.00;54.00;35.00
68198;PMS7003;55021;51.554;17.044;2022-12-20T19:01:55;70.00;52.00;31.00
68198;PMS7003;55021;51.554;17.044;2022-12-20T19:16:57;94.75;68.25;41.25
68198;PMS7003;55021;51.554;17.044;2022-12-20T19:32:00;67.75;51.25;32.00
68198;PMS7003;55021;51.554;17.044;2022-12-20T19:47:02;64.25;51.00;30.25
68198;PMS7003;55021;51.554;17.044;2022-12-20T20:02:05;70.75;53.75;32.00
68198;PMS7003;55021;51.554;17.044;2022-12-20T20:17:07;77.25;57.25;33.75
68198;PMS7003;55021;51.554;17.044;2022-12-20T20:32:10;72.00;56.75;33.75
68198;PMS7003;55021;51.554;17.044;2022-12-20T20:47:12;66.75;49.75;31.75
68198;PMS7003;55021;51.554;17.044;2022-12-20T21:02:14;71.75;56.25;32.75
68198;PMS7003;55021;51.554;17.044;2022-12-20T21:17:17;79.00;60.75;36.00
68198;PMS7003;55021;51.554;17.044;2022-12-20T21:32:20;71.50;51.00;30.75
68198;PMS7003;55021;51.554;17.044;2022-12-20T21:47:22;80.00;58.25;37.25
68198;PMS7003;55021;51.554;17.044;2022-12-20T22:02:25;69.25;53.25;31.50
68198;PMS7003;55021;51.554;17.044;2022-12-20T22:17:27;70.75;53.00;33.00
68198;PMS7003;55021;51.554;17.044;2022-12-20T22:32:31;70.00;51.25;30.75
68198;PMS7003;55021;51.554;17.044;2022-12-20T22:47:33;68.50;52.00;31.75
68198;PMS7003;55021;51.554;17.044;2022-12-20T23:02:36;67.50;49.25;30.75
68198;PMS7003;55021;51.554;17.044;2022-12-20T23:17:38;66.25;49.75;30.25
68198;PMS7003;55021;51.554;17.044;2022-12-20T23:32:41;68.75;50.25;30.25
68198;PMS7003;55021;51.554;17.044;2022-12-20T23:47:44;64.25;48.00;28.75
